sensor_id;sensor_type;location;lat;lon;timestamp;P1;durP1;ratioP1;P2;durP2;ratioP2
43756;SDS011;73222;41.866;12.462;2023-11-18T00:00:22;11.10;;;3.50;;
43756;SDS011;73222;41.866;12.462;2023-11-18T00:02:49;10.52;;;2.88;;
43756;SDS011;73222;41.866;12.462;2023-11-18T00:05:14;8.75;;;3.20;;
43756;SDS011;73222;41.866;12.462;2023-11-18T00:07:40;12.23;;;3.72;;
43756;SDS011;73222;41.866;12.462;2023-11-18T00:10:06;12.65;;;3.75;;
43756;SDS011;73222;41.866;12.462;2023-11-18T00:12:33;11.80;;;3.83;;
43756;SDS011;73222;41.866;12.462;2023-11-18T00:15:00;7.43;;;3.95;;
43756;SDS011;73222;41.866;12.462;2023-11-18T00:17:29;10.38;;;3.58;;
43756;SDS011;73222;41.866;12.462;2023-11-18T00:19:55;9.70;;;4.72;;
43756;SDS011;73222;41.866;12.462;2023-11-18T00:22:21;7.45;;;3.00;;
43756;SDS011;73222;41.866;12.462;2023-11-18T00:24:46;9.02;;;3.28;;
43756;SDS011;73222;41.866;12.462;2023-11-18T00:27:11;13.43;;;3.33;;
43756;SDS011;73222;41.866;12.462;2023-11-18T00:29:40;10.52;;;4.13;;
43756;SDS011;73222;41.866;12.462;2023-11-18T00:32:06;8.65;;;3.22;;
43756;SDS011;73222;41.866;12.462;2023-11-18T00:34:32;12.07;;;4.70;;
43756;SDS011;73222;41.866;12.462;2023-11-18T00:36:58;7.65;;;3.40;;
43756;SDS011;73222;41.866;12.462;2023-11-18T00:39:24;10.75;;;3.35;;
43756;SDS011;73222;41.866;12.462;2023-11-18T00:41:52;8.70;;;3.40;;
43756;SDS011;73222;41.866;12.462;2023-11-18T00:44:18;6.90;;;3.28;;
43756;SDS011;73222;41.866;12.462;2023-11-18T00:46:44;7.93;;;3.70;;
43756;SDS011;73222;41.866;12.462;2023-11-18T00:49:09;9.05;;;3.15;;
43756;SDS011;73222;41.866;12.462;2023-11-18T00:51:36;10.55;;;3.25;;
43756;SDS011;73222;41.866;12.462;2023-11-18T00:54:02;8.95;;;3.15;;
43756;SDS011;73222;41.866;12.462;2023-11-18T00:56:30;11.63;;;4.60;;
43756;SDS011;73222;41.866;12.462;2023-11-18T00:58:56;10.30;;;3.22;;
43756;SDS011;73222;41.866;12.462;2023-11-18T01:01:22;12.07;;;3.20;;
43756;SDS011;73222;41.866;12.462;2023-11-18T01:03:47;11.75;;;2.85;;
43756;SDS011;73222;41.866;12.462;2023-11-18T01:06:13;8.30;;;2.95;;
43756;SDS011;73222;41.866;12.462;2023-11-18T01:08:40;13.00;;;3.20;;
43756;SDS011;73222;41.866;12.462;2023-11-18T01:11:09;7.22;;;3.03;;
43756;SDS011;73222;41.866;12.462;2023-11-18T01:13:34;7.50;;;3.53;;
43756;SDS011;73222;41.866;12.462;2023-11-18T01:16:00;9.63;;;3.45;;
43756;SDS011;73222;41.866;12.462;2023-11-18T01:18:26;5.55;;;2.88;;
43756;SDS011;73222;41.866;12.462;2023-11-18T01:20:52;11.02;;;3.58;;
43756;SDS011;73222;41.866;12.462;2023-11-18T01:23:18;9.40;;;3.58;;
43756;SDS011;73222;41.866;12.462;2023-11-18T01:25:43;11.73;;;3.10;;
43756;SDS011;73222;41.866;12.462;2023-11-18T01:28:09;6.20;;;2.67;;
43756;SDS011;73222;41.866;12.462;2023-11-18T01:30:34;7.68;;;2.97;;
43756;SDS011;73222;41.866;12.462;2023-11-18T01:32:59;9.40;;;3.15;;
43756;SDS011;73222;41.866;12.462;2023-11-18T01:35:28;7.53;;;3.30;;
43756;SDS011;73222;41.866;12.462;2023-11-18T01:37:54;7.88;;;2.92;;
43756;SDS011;73222;41.866;12.462;2023-11-18T01:40:20;9.57;;;3.35;;
43756;SDS011;73222;41.866;12.462;2023-11-18T01:42:46;10.43;;;3.05;;
43756;SDS011;73222;41.866;12.462;2023-11-18T01:45:14;5.07;;;2.70;;
43756;SDS011;73222;41.866;12.462;2023-11-18T01:47:42;5.47;;;3.10;;
43756;SDS011;73222;41.866;12.462;2023-11-18T01:50:10;5.43;;;2.55;;
43756;SDS011;73222;41.866;12.462;2023-11-18T01:52:37;6.90;;;3.03;;
43756;SDS011;73222;41.866;12.462;2023-11-18T01:55:06;4.95;;;2.72;;
43756;SDS011;73222;41.866;12.462;2023-11-18T01:57:33;8.85;;;3.72;;
43756;SDS011;73222;41.866;12.462;2023-11-18T01:59:59;5.63;;;2.92;;
43756;SDS011;73222;41.866;12.462;2023-11-18T02:02:25;5.78;;;2.67;;
43756;SDS011;73222;41.866;12.462;2023-11-18T02:04:51;7.93;;;3.00;;
43756;SDS011;73222;41.866;12.462;2023-11-18T02:07:17;4.78;;;2.63;;
43756;SDS011;73222;41.866;12.462;2023-11-18T02:09:43;5.20;;;3.00;;
43756;SDS011;73222;41.866;12.462;2023-11-18T02:14:49;9.77;;;3.13;;
43756;SDS011;73222;41.866;12.462;2023-11-18T02:17:18;7.85;;;2.75;;
43756;SDS011;73222;41.866;12.462;2023-11-18T02:19:49;8.60;;;3.13;;
43756;SDS011;73222;41.866;12.462;2023-11-18T02:22:16;4.85;;;2.63;;
43756;SDS011;73222;41.866;12.462;2023-11-18T02:24:42;5.65;;;2.97;;
43756;SDS011;73222;41.866;12.462;2023-11-18T02:27:08;5.93;;;2.47;;
43756;SDS011;73222;41.866;12.462;2023-11-18T02:32:04;5.80;;;3.17;;
43756;SDS011;73222;41.866;12.462;2023-11-18T02:34:33;8.50;;;2.83;;
43756;SDS011;73222;41.866;12.462;2023-11-18T02:37:05;9.57;;;4.57;;
43756;SDS011;73222;41.866;12.462;2023-11-18T02:39:36;4.65;;;2.63;;
43756;SDS011;73222;41.866;12.462;2023-11-18T02:42:06;5.20;;;2.85;;
43756;SDS011;73222;41.866;12.462;2023-11-18T02:44:35;4.70;;;2.65;;
43756;SDS011;73222;41.866;12.462;2023-11-18T02:47:02;9.10;;;3.45;;
43756;SDS011;73222;41.866;12.462;2023-11-18T02:49:30;6.38;;;3.20;;
43756;SDS011;73222;41.866;12.462;2023-11-18T02:51:55;11.75;;;3.60;;
43756;SDS011;73222;41.866;12.462;2023-11-18T02:54:21;7.07;;;3.13;;
43756;SDS011;73222;41.866;12.462;2023-11-18T02:56:47;8.98;;;3.50;;
43756;SDS011;73222;41.866;12.462;2023-11-18T02:59:12;4.68;;;2.97;;
43756;SDS011;73222;41.866;12.462;2023-11-18T03:01:38;7.13;;;3.13;;
43756;SDS011;73222;41.866;12.462;2023-11-18T03:04:06;8.35;;;3.38;;
43756;SDS011;73222;41.866;12.462;2023-11-18T03:06:33;7.28;;;3.20;;
43756;SDS011;73222;41.866;12.462;2023-11-18T03:09:00;6.78;;;3.13;;
43756;SDS011;73222;41.866;12.462;2023-11-18T03:11:25;11.25;;;3.40;;
43756;SDS011;73222;41.866;12.462;2023-11-18T03:13:53;9.40;;;3.45;;
43756;SDS011;73222;41.866;12.462;2023-11-18T03:16:19;7.55;;;3.35;;
43756;SDS011;73222;41.866;12.462;2023-11-18T03:18:45;11.68;;;3.10;;
43756;SDS011;73222;41.866;12.462;2023-11-18T03:21:11;7.05;;;2.90;;
43756;SDS011;73222;41.866;12.462;2023-11-18T03:23:37;6.95;;;3.22;;
43756;SDS011;73222;41.866;12.462;2023-11-18T03:26:07;9.35;;;3.50;;
43756;SDS011;73222;41.866;12.462;2023-11-18T03:28:33;7.47;;;3.55;;
43756;SDS011;73222;41.866;12.462;2023-11-18T03:30:59;6.93;;;2.78;;
43756;SDS011;73222;41.866;12.462;2023-11-18T03:33:24;11.30;;;3.85;;
43756;SDS011;73222;41.866;12.462;2023-11-18T03:35:50;11.63;;;3.55;;
43756;SDS011;73222;41.866;12.462;2023-11-18T03:38:15;8.32;;;3.70;;
43756;SDS011;73222;41.866;12.462;2023-11-18T03:40:42;6.57;;;3.58;;
43756;SDS011;73222;41.866;12.462;2023-11-18T03:43:10;13.65;;;3.40;;
43756;SDS011;73222;41.866;12.462;2023-11-18T03:45:37;9.30;;;3.53;;
43756;SDS011;73222;41.866;12.462;2023-11-18T03:48:03;8.00;;;3.58;;
43756;SDS011;73222;41.866;12.462;2023-11-18T03:50:29;7.95;;;3.20;;
43756;SDS011;73222;41.866;12.462;2023-11-18T03:52:54;11.00;;;3.65;;
43756;SDS011;73222;41.866;12.462;2023-11-18T03:55:20;6.97;;;3.45;;
43756;SDS011;73222;41.866;12.462;2023-11-18T03:57:45;7.53;;;3.15;;
43756;SDS011;73222;41.866;12.462;2023-11-18T04:00:11;8.20;;;3.45;;
43756;SDS011;73222;41.866;12.462;2023-11-18T04:02:37;8.52;;;3.47;;
43756;SDS011;73222;41.866;12.462;2023-11-18T04:05:05;8.65;;;3.20;;
43756;SDS011;73222;41.866;12.462;2023-11-18T04:07:30;9.20;;;3.63;;
43756;SDS011;73222;41.866;12.462;2023-11-18T04:09:56;11.23;;;3.63;;
43756;SDS011;73222;41.866;12.462;2023-11-18T04:12:21;10.05;;;3.42;;
43756;SDS011;73222;41.866;12.462;2023-11-18T04:14:49;5.93;;;3.13;;
43756;SDS011;73222;41.866;12.462;2023-11-18T04:17:14;8.90;;;3.10;;
43756;SDS011;73222;41.866;12.462;2023-11-18T04:19:40;7.25;;;3.25;;
43756;SDS011;73222;41.866;12.462;2023-11-18T04:22:06;7.80;;;3.50;;
43756;SDS011;73222;41.866;12.462;2023-11-18T04:24:31;7.40;;;3.72;;
43756;SDS011;73222;41.866;12.462;2023-11-18T04:26:57;8.15;;;3.38;;
43756;SDS011;73222;41.866;12.462;2023-11-18T04:29:22;9.98;;;3.67;;
43756;SDS011;73222;41.866;12.462;2023-11-18T04:31:48;11.05;;;4.22;;
43756;SDS011;73222;41.866;12.462;2023-11-18T04:34:14;7.22;;;3.42;;
43756;SDS011;73222;41.866;12.462;2023-11-18T04:36:41;8.60;;;3.63;;
43756;SDS011;73222;41.866;12.462;2023-11-18T04:39:06;5.63;;;3.60;;
43756;SDS011;73222;41.866;12.462;2023-11-18T04:41:32;6.38;;;3.20;;
43756;SDS011;73222;41.866;12.462;2023-11-18T04:43:57;8.52;;;3.28;;
43756;SDS011;73222;41.866;12.462;2023-11-18T04:46:23;5.88;;;3.13;;
43756;SDS011;73222;41.866;12.462;2023-11-18T04:48:48;12.93;;;2.90;;
43756;SDS011;73222;41.866;12.462;2023-11-18T04:51:14;10.00;;;3.13;;
43756;SDS011;73222;41.866;12.462;2023-11-18T04:53:39;9.98;;;3.55;;
43756;SDS011;73222;41.866;12.462;2023-11-18T04:56:04;6.82;;;3.08;;
43756;SDS011;73222;41.866;12.462;2023-11-18T04:58:34;6.82;;;3.50;;
43756;SDS011;73222;41.866;12.462;2023-11-18T05:01:00;7.55;;;3.25;;
43756;SDS011;73222;41.866;12.462;2023-11-18T05:03:25;5.32;;;2.97;;
43756;SDS011;73222;41.866;12.462;2023-11-18T05:05:51;8.50;;;3.65;;
43756;SDS011;73222;41.866;12.462;2023-11-18T05:08:19;8.95;;;4.28;;
43756;SDS011;73222;41.866;12.462;2023-11-18T05:10:49;10.70;;;3.25;;
43756;SDS011;73222;41.866;12.462;2023-11-18T05:13:15;7.00;;;3.65;;
43756;SDS011;73222;41.866;12.462;2023-11-18T05:15:47;6.43;;;3.38;;
43756;SDS011;73222;41.866;12.462;2023-11-18T05:18:15;9.50;;;3.30;;
43756;SDS011;73222;41.866;12.462;2023-11-18T05:20:41;8.20;;;4.43;;
43756;SDS011;73222;41.866;12.462;2023-11-18T05:23:10;7.47;;;3.80;;
43756;SDS011;73222;41.866;12.462;2023-11-18T05:25:41;9.98;;;3.50;;
43756;SDS011;73222;41.866;12.462;2023-11-18T05:28:09;6.78;;;3.58;;
43756;SDS011;73222;41.866;12.462;2023-11-18T05:30:36;8.02;;;4.05;;
43756;SDS011;73222;41.866;12.462;2023-11-18T05:33:05;9.55;;;3.55;;
43756;SDS011;73222;41.866;12.462;2023-11-18T05:35:31;11.48;;;3.40;;
43756;SDS011;73222;41.866;12.462;2023-11-18T05:37:57;7.28;;;2.95;;
43756;SDS011;73222;41.866;12.462;2023-11-18T05:40:23;10.20;;;4.03;;
43756;SDS011;73222;41.866;12.462;2023-11-18T05:42:50;5.85;;;3.15;;
43756;SDS011;73222;41.866;12.462;2023-11-18T05:45:17;8.93;;;3.45;;
43756;SDS011;73222;41.866;12.462;2023-11-18T05:47:53;5.85;;;3.03;;
43756;SDS011;73222;41.866;12.462;2023-11-18T05:50:21;9.45;;;4.03;;
43756;SDS011;73222;41.866;12.462;2023-11-18T05:52:47;8.55;;;3.40;;
43756;SDS011;73222;41.866;12.462;2023-11-18T05:55:13;7.22;;;3.50;;
43756;SDS011;73222;41.866;12.462;2023-11-18T05:57:41;6.10;;;3.35;;
43756;SDS011;73222;41.866;12.462;2023-11-18T06:00:10;9.77;;;3.60;;
43756;SDS011;73222;41.866;12.462;2023-11-18T06:02:40;7.15;;;3.13;;
43756;SDS011;73222;41.866;12.462;2023-11-18T06:05:09;11.82;;;3.80;;
43756;SDS011;73222;41.866;12.462;2023-11-18T06:07:37;5.63;;;3.42;;
43756;SDS011;73222;41.866;12.462;2023-11-18T06:10:08;5.95;;;3.08;;
43756;SDS011;73222;41.866;12.462;2023-11-18T06:12:34;8.13;;;3.38;;
43756;SDS011;73222;41.866;12.462;2023-11-18T06:15:01;6.97;;;3.08;;
43756;SDS011;73222;41.866;12.462;2023-11-18T06:17:27;8.88;;;4.03;;
43756;SDS011;73222;41.866;12.462;2023-11-18T06:19:53;10.57;;;3.22;;
43756;SDS011;73222;41.866;12.462;2023-11-18T06:22:18;6.13;;;2.90;;
43756;SDS011;73222;41.866;12.462;2023-11-18T06:24:44;7.03;;;3.22;;
43756;SDS011;73222;41.866;12.462;2023-11-18T06:27:10;7.03;;;3.00;;
43756;SDS011;73222;41.866;12.462;2023-11-18T06:29:35;5.47;;;2.97;;
43756;SDS011;73222;41.866;12.462;2023-11-18T06:32:01;5.00;;;3.00;;
43756;SDS011;73222;41.866;12.462;2023-11-18T06:34:26;7.50;;;3.00;;
43756;SDS011;73222;41.866;12.462;2023-11-18T06:36:52;6.97;;;3.63;;
43756;SDS011;73222;41.866;12.462;2023-11-18T06:39:18;12.77;;;3.60;;
43756;SDS011;73222;41.866;12.462;2023-11-18T06:41:46;6.43;;;3.33;;
43756;SDS011;73222;41.866;12.462;2023-11-18T06:44:15;6.00;;;3.30;;
43756;SDS011;73222;41.866;12.462;2023-11-18T06:46:43;8.32;;;3.00;;
43756;SDS011;73222;41.866;12.462;2023-11-18T06:49:09;6.55;;;3.40;;
43756;SDS011;73222;41.866;12.462;2023-11-18T06:51:40;5.82;;;2.80;;
43756;SDS011;73222;41.866;12.462;2023-11-18T06:54:06;5.70;;;3.40;;
43756;SDS011;73222;41.866;12.462;2023-11-18T06:56:35;8.35;;;3.45;;
43756;SDS011;73222;41.866;12.462;2023-11-18T06:59:03;8.93;;;3.30;;
43756;SDS011;73222;41.866;12.462;2023-11-18T07:04:02;5.88;;;3.20;;
43756;SDS011;73222;41.866;12.462;2023-11-18T07:06:28;5.85;;;3.10;;
43756;SDS011;73222;41.866;12.462;2023-11-18T07:08:54;6.95;;;3.20;;
43756;SDS011;73222;41.866;12.462;2023-11-18T07:11:20;9.82;;;3.58;;
43756;SDS011;73222;41.866;12.462;2023-11-18T07:13:47;6.45;;;3.38;;
43756;SDS011;73222;41.866;12.462;2023-11-18T07:16:13;9.15;;;3.47;;
43756;SDS011;73222;41.866;12.462;2023-11-18T07:18:39;6.35;;;3.70;;
43756;SDS011;73222;41.866;12.462;2023-11-18T07:21:05;8.90;;;3.55;;
43756;SDS011;73222;41.866;12.462;2023-11-18T07:23:34;8.07;;;3.65;;
43756;SDS011;73222;41.866;12.462;2023-11-18T07:26:00;9.45;;;3.60;;
43756;SDS011;73222;41.866;12.462;2023-11-18T07:28:26;6.38;;;3.40;;
43756;SDS011;73222;41.866;12.462;2023-11-18T07:30:52;4.60;;;3.22;;
43756;SDS011;73222;41.866;12.462;2023-11-18T07:33:19;7.70;;;3.80;;
43756;SDS011;73222;41.866;12.462;2023-11-18T07:35:46;6.03;;;3.10;;
43756;SDS011;73222;41.866;12.462;2023-11-18T07:38:15;7.90;;;3.53;;
43756;SDS011;73222;41.866;12.462;2023-11-18T07:40:41;7.18;;;3.70;;
43756;SDS011;73222;41.866;12.462;2023-11-18T07:43:13;5.85;;;3.80;;
43756;SDS011;73222;41.866;12.462;2023-11-18T07:45:38;12.55;;;4.32;;
43756;SDS011;73222;41.866;12.462;2023-11-18T07:48:08;7.45;;;4.00;;
43756;SDS011;73222;41.866;12.462;2023-11-18T07:50:38;8.05;;;4.53;;
43756;SDS011;73222;41.866;12.462;2023-11-18T07:53:09;9.88;;;4.38;;
43756;SDS011;73222;41.866;12.462;2023-11-18T07:55:35;6.13;;;4.13;;
43756;SDS011;73222;41.866;12.462;2023-11-18T07:58:04;8.95;;;4.30;;
43756;SDS011;73222;41.866;12.462;2023-11-18T08:00:31;8.98;;;4.72;;
43756;SDS011;73222;41.866;12.462;2023-11-18T08:02:58;10.65;;;4.38;;
43756;SDS011;73222;41.866;12.462;2023-11-18T08:05:25;8.63;;;4.07;;
43756;SDS011;73222;41.866;12.462;2023-11-18T08:07:51;7.88;;;3.97;;
43756;SDS011;73222;41.866;12.462;2023-11-18T08:10:19;7.47;;;3.63;;
43756;SDS011;73222;41.866;12.462;2023-11-18T08:12:46;9.75;;;3.72;;
43756;SDS011;73222;41.866;12.462;2023-11-18T08:15:12;4.97;;;3.28;;
43756;SDS011;73222;41.866;12.462;2023-11-18T08:17:38;7.05;;;4.30;;
43756;SDS011;73222;41.866;12.462;2023-11-18T08:20:04;5.70;;;3.20;;
43756;SDS011;73222;41.866;12.462;2023-11-18T08:22:39;6.82;;;3.22;;
43756;SDS011;73222;41.866;12.462;2023-11-18T08:25:10;5.38;;;3.47;;
43756;SDS011;73222;41.866;12.462;2023-11-18T08:27:37;5.82;;;3.67;;
43756;SDS011;73222;41.866;12.462;2023-11-18T08:30:06;5.25;;;3.28;;
43756;SDS011;73222;41.866;12.462;2023-11-18T08:32:39;5.82;;;3.65;;
43756;SDS011;73222;41.866;12.462;2023-11-18T08:35:05;6.35;;;3.25;;
43756;SDS011;73222;41.866;12.462;2023-11-18T08:37:35;8.27;;;3.30;;
43756;SDS011;73222;41.866;12.462;2023-11-18T08:40:04;6.13;;;3.50;;
43756;SDS011;73222;41.866;12.462;2023-11-18T08:42:51;4.43;;;3.00;;
43756;SDS011;73222;41.866;12.462;2023-11-18T08:45:21;5.93;;;3.40;;
43756;SDS011;73222;41.866;12.462;2023-11-18T08:47:52;6.60;;;2.85;;
43756;SDS011;73222;41.866;12.462;2023-11-18T08:50:18;6.80;;;2.83;;
43756;SDS011;73222;41.866;12.462;2023-11-18T08:52:47;4.38;;;2.90;;
43756;SDS011;73222;41.866;12.462;2023-11-18T08:55:13;5.95;;;3.45;;
43756;SDS011;73222;41.866;12.462;2023-11-18T08:57:49;7.55;;;3.10;;
43756;SDS011;73222;41.866;12.462;2023-11-18T09:00:27;6.75;;;3.13;;
43756;SDS011;73222;41.866;12.462;2023-11-18T09:03:14;6.78;;;3.17;;
43756;SDS011;73222;41.866;12.462;2023-11-18T09:05:58;6.30;;;3.10;;
43756;SDS011;73222;41.866;12.462;2023-11-18T09:08:29;7.32;;;3.40;;
43756;SDS011;73222;41.866;12.462;2023-11-18T09:13:30;4.85;;;3.25;;
43756;SDS011;73222;41.866;12.462;2023-11-18T09:16:00;4.90;;;3.20;;
43756;SDS011;73222;41.866;12.462;2023-11-18T09:18:26;5.35;;;3.28;;
43756;SDS011;73222;41.866;12.462;2023-11-18T09:20:58;8.88;;;3.22;;
43756;SDS011;73222;41.866;12.462;2023-11-18T09:23:26;4.80;;;3.10;;
43756;SDS011;73222;41.866;12.462;2023-11-18T09:25:53;5.93;;;3.15;;
43756;SDS011;73222;41.866;12.462;2023-11-18T09:28:19;9.48;;;3.55;;
43756;SDS011;73222;41.866;12.462;2023-11-18T09:30:45;5.70;;;3.30;;
43756;SDS011;73222;41.866;12.462;2023-11-18T09:33:23;5.63;;;3.33;;
43756;SDS011;73222;41.866;12.462;2023-11-18T09:38:29;8.75;;;3.40;;
43756;SDS011;73222;41.866;12.462;2023-11-18T09:40:56;4.78;;;2.85;;
43756;SDS011;73222;41.866;12.462;2023-11-18T09:43:26;9.80;;;3.35;;
43756;SDS011;73222;41.866;12.462;2023-11-18T09:45:55;6.55;;;3.40;;
43756;SDS011;73222;41.866;12.462;2023-11-18T09:48:21;5.85;;;3.20;;
43756;SDS011;73222;41.866;12.462;2023-11-18T09:50:52;5.68;;;2.75;;
43756;SDS011;73222;41.866;12.462;2023-11-18T09:53:18;8.52;;;3.30;;
43756;SDS011;73222;41.866;12.462;2023-11-18T09:55:48;8.57;;;2.85;;
43756;SDS011;73222;41.866;12.462;2023-11-18T09:58:20;3.70;;;2.58;;
43756;SDS011;73222;41.866;12.462;2023-11-18T10:00:49;4.25;;;2.67;;
43756;SDS011;73222;41.866;12.462;2023-11-18T10:03:16;6.38;;;2.72;;
43756;SDS011;73222;41.866;12.462;2023-11-18T10:05:42;4.13;;;3.03;;
43756;SDS011;73222;41.866;12.462;2023-11-18T10:08:09;7.07;;;2.90;;
43756;SDS011;73222;41.866;12.462;2023-11-18T10:10:35;3.47;;;2.30;;
43756;SDS011;73222;41.866;12.462;2023-11-18T10:13:01;4.47;;;2.50;;
43756;SDS011;73222;41.866;12.462;2023-11-18T10:15:29;2.97;;;2.08;;
43756;SDS011;73222;41.866;12.462;2023-11-18T10:17:56;6.25;;;2.80;;
43756;SDS011;73222;41.866;12.462;2023-11-18T10:23:10;4.68;;;2.40;;
43756;SDS011;73222;41.866;12.462;2023-11-18T10:25:56;9.00;;;2.17;;
43756;SDS011;73222;41.866;12.462;2023-11-18T10:31:03;4.78;;;2.78;;
43756;SDS011;73222;41.866;12.462;2023-11-18T10:33:35;3.83;;;2.60;;
43756;SDS011;73222;41.866;12.462;2023-11-18T10:36:02;5.55;;;2.13;;
43756;SDS011;73222;41.866;12.462;2023-11-18T10:38:30;3.70;;;2.00;;
43756;SDS011;73222;41.866;12.462;2023-11-18T10:40:59;3.17;;;2.20;;
43756;SDS011;73222;41.866;12.462;2023-11-18T10:43:27;4.07;;;2.08;;
43756;SDS011;73222;41.866;12.462;2023-11-18T10:46:08;3.63;;;1.80;;
43756;SDS011;73222;41.866;12.462;2023-11-18T10:48:42;2.78;;;1.80;;
43756;SDS011;73222;41.866;12.462;2023-11-18T10:51:15;4.40;;;2.10;;
43756;SDS011;73222;41.866;12.462;2023-11-18T10:53:48;6.95;;;1.92;;
43756;SDS011;73222;41.866;12.462;2023-11-18T10:56:22;6.25;;;2.10;;
43756;SDS011;73222;41.866;12.462;2023-11-18T10:59:05;4.13;;;2.10;;
43756;SDS011;73222;41.866;12.462;2023-11-18T11:01:34;4.32;;;2.22;;
43756;SDS011;73222;41.866;12.462;2023-11-18T11:06:35;2.55;;;1.90;;
43756;SDS011;73222;41.866;12.462;2023-11-18T11:09:07;2.63;;;1.50;;
43756;SDS011;73222;41.866;12.462;2023-11-18T11:11:40;4.68;;;1.83;;
43756;SDS011;73222;41.866;12.462;2023-11-18T11:14:11;2.95;;;1.80;;
43756;SDS011;73222;41.866;12.462;2023-11-18T11:16:42;2.78;;;1.88;;
43756;SDS011;73222;41.866;12.462;2023-11-18T11:19:13;3.42;;;1.60;;
43756;SDS011;73222;41.866;12.462;2023-11-18T11:21:50;2.75;;;1.67;;
43756;SDS011;73222;41.866;12.462;2023-11-18T11:24:35;2.35;;;1.70;;
43756;SDS011;73222;41.866;12.462;2023-11-18T11:27:14;2.42;;;1.50;;
43756;SDS011;73222;41.866;12.462;2023-11-18T11:30:02;2.63;;;1.70;;
43756;SDS011;73222;41.866;12.462;2023-11-18T11:32:36;4.30;;;1.50;;
43756;SDS011;73222;41.866;12.462;2023-11-18T11:35:14;3.17;;;1.63;;
43756;SDS011;73222;41.866;12.462;2023-11-18T11:37:46;4.32;;;1.70;;
43756;SDS011;73222;41.866;12.462;2023-11-18T11:40:13;2.58;;;1.60;;
43756;SDS011;73222;41.866;12.462;2023-11-18T11:42:46;3.60;;;1.90;;
43756;SDS011;73222;41.866;12.462;2023-11-18T11:45:23;1.90;;;1.33;;
43756;SDS011;73222;41.866;12.462;2023-11-18T11:50:32;1.90;;;1.10;;
43756;SDS011;73222;41.866;12.462;2023-11-18T11:53:08;2.50;;;1.30;;
43756;SDS011;73222;41.866;12.462;2023-11-18T11:55:44;3.03;;;1.27;;
43756;SDS011;73222;41.866;12.462;2023-11-18T11:58:25;3.95;;;1.40;;
43756;SDS011;73222;41.866;12.462;2023-11-18T12:00:54;2.22;;;1.58;;
43756;SDS011;73222;41.866;12.462;2023-11-18T12:03:21;2.58;;;1.50;;
43756;SDS011;73222;41.866;12.462;2023-11-18T12:05:49;3.40;;;1.70;;
43756;SDS011;73222;41.866;12.462;2023-11-18T12:08:21;2.20;;;1.48;;
43756;SDS011;73222;41.866;12.462;2023-11-18T12:10:51;2.28;;;1.60;;
43756;SDS011;73222;41.866;12.462;2023-11-18T12:13:17;3.08;;;1.98;;
43756;SDS011;73222;41.866;12.462;2023-11-18T12:15:54;3.88;;;2.00;;
43756;SDS011;73222;41.866;12.462;2023-11-18T12:18:23;3.72;;;2.10;;
43756;SDS011;73222;41.866;12.462;2023-11-18T12:20:50;2.70;;;1.92;;
43756;SDS011;73222;41.866;12.462;2023-11-18T12:23:26;3.83;;;2.00;;
43756;SDS011;73222;41.866;12.462;2023-11-18T12:25:52;3.05;;;2.08;;
43756;SDS011;73222;41.866;12.462;2023-11-18T12:28:26;3.38;;;2.25;;
43756;SDS011;73222;41.866;12.462;2023-11-18T12:30:55;4.05;;;2.10;;
43756;SDS011;73222;41.866;12.462;2023-11-18T12:33:22;3.22;;;1.67;;
43756;SDS011;73222;41.866;12.462;2023-11-18T12:41:33;1.95;;;1.45;;
43756;SDS011;73222;41.866;12.462;2023-11-18T12:49:22;2.28;;;1.60;;
43756;SDS011;73222;41.866;12.462;2023-11-18T12:54:18;3.30;;;2.05;;
43756;SDS011;73222;41.866;12.462;2023-11-18T12:56:45;2.55;;;1.70;;
43756;SDS011;73222;41.866;12.462;2023-11-18T12:59:17;3.40;;;2.00;;
43756;SDS011;73222;41.866;12.462;2023-11-18T13:01:52;2.88;;;2.08;;
43756;SDS011;73222;41.866;12.462;2023-11-18T13:04:27;4.43;;;2.25;;
43756;SDS011;73222;41.866;12.462;2023-11-18T13:06:52;3.40;;;1.90;;
43756;SDS011;73222;41.866;12.462;2023-11-18T13:09:18;2.50;;;1.67;;
43756;SDS011;73222;41.866;12.462;2023-11-18T13:12:00;4.05;;;2.10;;
43756;SDS011;73222;41.866;12.462;2023-11-18T13:14:30;3.65;;;1.70;;
43756;SDS011;73222;41.866;12.462;2023-11-18T13:17:01;3.10;;;1.73;;
43756;SDS011;73222;41.866;12.462;2023-11-18T13:19:31;2.90;;;1.67;;
43756;SDS011;73222;41.866;12.462;2023-11-18T13:22:03;2.67;;;1.80;;
43756;SDS011;73222;41.866;12.462;2023-11-18T13:24:30;2.08;;;1.52;;
43756;SDS011;73222;41.866;12.462;2023-11-18T13:26:56;1.83;;;1.42;;
43756;SDS011;73222;41.866;12.462;2023-11-18T13:29:22;2.63;;;1.65;;
43756;SDS011;73222;41.866;12.462;2023-11-18T13:31:49;2.88;;;2.00;;
43756;SDS011;73222;41.866;12.462;2023-11-18T13:34:16;2.08;;;1.45;;
43756;SDS011;73222;41.866;12.462;2023-11-18T13:36:42;4.05;;;1.73;;
43756;SDS011;73222;41.866;12.462;2023-11-18T13:39:14;1.90;;;1.55;;
43756;SDS011;73222;41.866;12.462;2023-11-18T13:41:44;2.08;;;1.50;;
43756;SDS011;73222;41.866;12.462;2023-11-18T13:44:13;3.25;;;1.48;;
43756;SDS011;73222;41.866;12.462;2023-11-18T13:46:59;3.75;;;2.00;;
43756;SDS011;73222;41.866;12.462;2023-11-18T13:49:27;2.80;;;1.60;;
43756;SDS011;73222;41.866;12.462;2023-11-18T13:51:53;2.28;;;1.60;;
43756;SDS011;73222;41.866;12.462;2023-11-18T13:54:19;2.63;;;1.65;;
43756;SDS011;73222;41.866;12.462;2023-11-18T13:56:44;4.03;;;1.67;;
43756;SDS011;73222;41.866;12.462;2023-11-18T13:59:11;2.83;;;1.65;;
43756;SDS011;73222;41.866;12.462;2023-11-18T14:01:37;3.63;;;1.50;;
43756;SDS011;73222;41.866;12.462;2023-11-18T14:04:02;2.88;;;1.70;;
43756;SDS011;73222;41.866;12.462;2023-11-18T14:06:30;3.08;;;1.70;;
43756;SDS011;73222;41.866;12.462;2023-11-18T14:08:55;3.78;;;2.28;;
43756;SDS011;73222;41.866;12.462;2023-11-18T14:11:21;3.00;;;1.98;;
43756;SDS011;73222;41.866;12.462;2023-11-18T14:13:46;3.53;;;1.90;;
43756;SDS011;73222;41.866;12.462;2023-11-18T14:16:12;6.30;;;2.20;;
43756;SDS011;73222;41.866;12.462;2023-11-18T14:18:37;3.58;;;2.30;;
43756;SDS011;73222;41.866;12.462;2023-11-18T14:21:06;3.40;;;2.03;;
43756;SDS011;73222;41.866;12.462;2023-11-18T14:23:31;3.35;;;2.17;;
43756;SDS011;73222;41.866;12.462;2023-11-18T14:25:57;3.65;;;2.65;;
43756;SDS011;73222;41.866;12.462;2023-11-18T14:28:23;3.28;;;2.35;;
43756;SDS011;73222;41.866;12.462;2023-11-18T14:30:51;3.40;;;1.95;;
43756;SDS011;73222;41.866;12.462;2023-11-18T14:33:17;3.47;;;2.22;;
43756;SDS011;73222;41.866;12.462;2023-11-18T14:35:45;3.10;;;2.10;;
43756;SDS011;73222;41.866;12.462;2023-11-18T14:38:11;3.28;;;2.10;;
43756;SDS011;73222;41.866;12.462;2023-11-18T14:40:37;3.50;;;2.20;;
43756;SDS011;73222;41.866;12.462;2023-11-18T14:43:04;4.07;;;2.30;;
43756;SDS011;73222;41.866;12.462;2023-11-18T14:45:30;4.70;;;2.30;;
43756;SDS011;73222;41.866;12.462;2023-11-18T14:47:56;2.88;;;1.90;;
43756;SDS011;73222;41.866;12.462;2023-11-18T14:50:21;2.28;;;1.70;;
43756;SDS011;73222;41.866;12.462;2023-11-18T14:52:49;3.53;;;2.22;;
43756;SDS011;73222;41.866;12.462;2023-11-18T14:55:25;4.80;;;2.03;;
43756;SDS011;73222;41.866;12.462;2023-11-18T14:57:51;4.07;;;2.50;;
43756;SDS011;73222;41.866;12.462;2023-11-18T15:00:17;3.78;;;2.42;;
43756;SDS011;73222;41.866;12.462;2023-11-18T15:02:52;3.90;;;2.10;;
43756;SDS011;73222;41.866;12.462;2023-11-18T15:05:20;3.72;;;2.22;;
43756;SDS011;73222;41.866;12.462;2023-11-18T15:10:13;4.05;;;2.58;;
43756;SDS011;73222;41.866;12.462;2023-11-18T15:12:40;3.63;;;2.60;;
43756;SDS011;73222;41.866;12.462;2023-11-18T15:15:06;3.67;;;2.50;;
43756;SDS011;73222;41.866;12.462;2023-11-18T15:17:33;4.00;;;2.30;;